Time;durP1;ratioP1;P1;durP2;ratioP2;P2;SDS_P1;SDS_P2;PMS_P1;PMS_P2;Temp;Humidity;BMP_temperature;BMP_pressure;BME280_temperature;BME280_humidity;BME280_pressure;Samples;Min_cycle;Max_cycle;Signal;HPM_P1;HPM_P2
2023/09/11 00:01:45;;;;;;;3.60;3.17;;;;;;;;;;6185839;23;20504;-68
2023/09/11 00:04:11;;;;;;;5.70;3.35;;;;;;;;;;6185664;23;20076;-68
2023/09/11 00:06:38;;;;;;;4.57;3.35;;;;;;;;;;6185178;23;20398;-68
2023/09/11 00:09:04;;;;;;;3.60;3.03;;;;;;;;;;6185595;23;20108;-68
2023/09/11 00:11:30;;;;;;;4.80;3.47;;;;;;;;;;6185427;23;20116;-68
2023/09/11 00:13:57;;;;;;;4.13;3.42;;;;;;;;;;6185527;23;20511;-68
2023/09/11 00:16:23;;;;;;;3.70;3.15;;;;;;;;;;6185551;23;20523;-69
2023/09/11 00:18:49;;;;;;;4.80;3.30;;;;;;;;;;6185644;23;20111;-68
2023/09/11 00:21:16;;;;;;;5.38;3.67;;;;;;;;;;6185283;23;20081;-68
2023/09/11 00:23:42;;;;;;;5.80;3.33;;;;;;;;;;6185413;23;20088;-69
2023/09/11 00:26:08;;;;;;;3.88;3.30;;;;;;;;;;6185582;23;20084;-68
2023/09/11 00:28:34;;;;;;;5.60;3.55;;;;;;;;;;6159142;23;20068;-69
2023/09/11 00:31:01;;;;;;;3.92;3.40;;;;;;;;;;6185538;23;20484;-69
2023/09/11 00:33:27;;;;;;;5.55;3.70;;;;;;;;;;6185669;23;20020;-69
2023/09/11 00:35:54;;;;;;;6.18;3.95;;;;;;;;;;6185233;23;20084;-68
2023/09/11 00:38:20;;;;;;;4.40;3.58;;;;;;;;;;6185650;23;20104;-68
2023/09/11 00:40:46;;;;;;;4.07;3.47;;;;;;;;;;6185751;23;20068;-68
2023/09/11 00:43:13;;;;;;;4.25;3.63;;;;;;;;;;6185333;23;20064;-68
2023/09/11 00:45:39;;;;;;;4.35;3.78;;;;;;;;;;6185407;23;20377;-68
2023/09/11 00:48:05;;;;;;;4.18;3.78;;;;;;;;;;6185227;23;20099;-68
2023/09/11 00:50:32;;;;;;;8.52;3.88;;;;;;;;;;6185226;23;20080;-69
2023/09/11 00:52:59;;;;;;;5.55;4.00;;;;;;;;;;6185249;23;20084;-69
2023/09/11 00:55:26;;;;;;;3.92;3.55;;;;;;;;;;6159243;23;20068;-68
2023/09/11 00:57:52;;;;;;;4.57;3.22;;;;;;;;;;6158961;23;20131;-69
2023/09/11 01:00:19;;;;;;;4.05;3.50;;;;;;;;;;6185353;23;20075;-68
2023/09/11 01:02:45;;;;;;;5.85;3.55;;;;;;;;;;6185311;23;20076;-69
2023/09/11 01:05:11;;;;;;;3.92;3.50;;;;;;;;;;6184844;23;20124;-68
2023/09/11 01:07:38;;;;;;;5.57;3.83;;;;;;;;;;6185098;23;20515;-68
2023/09/11 01:10:06;;;;;;;4.05;3.63;;;;;;;;;;6185109;23;20064;-68
2023/09/11 01:12:36;;;;;;;4.53;3.75;;;;;;;;;;6184992;23;20135;-69
2023/09/11 01:15:04;;;;;;;5.95;3.95;;;;;;;;;;6158924;23;20079;-68
2023/09/11 01:17:39;;;;;;;4.18;3.38;;;;;;;;;;6184826;23;20075;-69
2023/09/11 01:20:23;;;;;;;5.00;3.90;;;;;;;;;;6185066;23;20076;-68
2023/09/11 01:23:02;;;;;;;5.45;3.70;;;;;;;;;;6184544;23;20084;-67
2023/09/11 01:25:35;;;;;;;4.05;3.30;;;;;;;;;;6185084;23;20078;-68
2023/09/11 01:28:08;;;;;;;7.50;3.85;;;;;;;;;;6184825;23;20072;-68
2023/09/11 01:30:35;;;;;;;4.40;3.90;;;;;;;;;;6184873;23;20083;-68
2023/09/11 01:33:02;;;;;;;6.00;3.90;;;;;;;;;;6184458;23;20079;-68
2023/09/11 01:35:28;;;;;;;4.68;3.78;;;;;;;;;;6184951;23;20120;-68
2023/09/11 01:37:55;;;;;;;4.55;4.15;;;;;;;;;;6184845;23;20080;-69
2023/09/11 01:40:23;;;;;;;4.53;3.80;;;;;;;;;;6184896;23;20385;-69
2023/09/11 01:42:54;;;;;;;5.13;4.05;;;;;;;;;;6184869;23;20072;-68
2023/09/11 01:45:21;;;;;;;5.35;4.30;;;;;;;;;;6184684;23;20072;-68
2023/09/11 01:47:50;;;;;;;5.22;3.97;;;;;;;;;;6184299;23;20084;-68
2023/09/11 01:50:18;;;;;;;6.38;3.88;;;;;;;;;;6184821;23;20398;-68
2023/09/11 01:52:46;;;;;;;4.97;4.20;;;;;;;;;;6184638;23;20083;-68
2023/09/11 01:55:12;;;;;;;5.25;4.07;;;;;;;;;;6184682;23;20387;-68
2023/09/11 01:57:39;;;;;;;4.70;4.20;;;;;;;;;;6158275;23;20516;-68
2023/09/11 02:00:07;;;;;;;4.90;3.90;;;;;;;;;;6184673;23;20064;-68
2023/09/11 02:02:33;;;;;;;5.55;4.05;;;;;;;;;;6184139;23;20112;-68
2023/09/11 02:04:59;;;;;;;5.80;4.32;;;;;;;;;;6184755;23;20076;-68
2023/09/11 02:07:25;;;;;;;5.65;4.68;;;;;;;;;;6184514;23;20430;-68
2023/09/11 02:09:52;;;;;;;4.60;3.92;;;;;;;;;;6184527;23;20366;-69
2023/09/11 02:12:18;;;;;;;4.60;4.10;;;;;;;;;;6184660;23;20131;-68
2023/09/11 02:14:44;;;;;;;6.65;4.13;;;;;;;;;;6184553;23;20064;-69
2023/09/11 02:17:11;;;;;;;5.05;3.60;;;;;;;;;;6157809;23;20079;-68
2023/09/11 02:19:37;;;;;;;6.03;4.07;;;;;;;;;;6184537;23;20488;-68
2023/09/11 02:22:03;;;;;;;6.55;4.07;;;;;;;;;;6184456;23;20435;-68
2023/09/11 02:24:30;;;;;;;5.65;4.28;;;;;;;;;;6184280;23;20132;-68
2023/09/11 02:26:57;;;;;;;4.63;3.85;;;;;;;;;;6184792;23;20381;-68
2023/09/11 02:29:23;;;;;;;4.80;3.97;;;;;;;;;;6184429;23;20073;-68
2023/09/11 02:31:50;;;;;;;5.60;4.32;;;;;;;;;;6184273;23;20009;-68
2023/09/11 02:34:16;;;;;;;5.32;4.32;;;;;;;;;;6158488;23;20084;-68
2023/09/11 02:36:42;;;;;;;4.78;4.28;;;;;;;;;;6184415;23;20068;-68
2023/09/11 02:39:08;;;;;;;5.28;4.22;;;;;;;;;;6184397;23;20072;-69
2023/09/11 02:41:35;;;;;;;5.55;4.03;;;;;;;;;;6184395;23;20072;-68
2023/09/11 02:44:01;;;;;;;6.57;4.30;;;;;;;;;;6184428;23;20076;-68
2023/09/11 02:46:27;;;;;;;4.78;4.30;;;;;;;;;;6157877;23;20115;-68
2023/09/11 02:48:54;;;;;;;7.03;4.05;;;;;;;;;;6184497;23;20377;-68
2023/09/11 02:51:20;;;;;;;6.47;4.18;;;;;;;;;;6184390;23;20084;-67
2023/09/11 02:53:46;;;;;;;5.80;4.28;;;;;;;;;;6184193;23;20084;-68
2023/09/11 02:56:13;;;;;;;4.70;4.22;;;;;;;;;;6184399;23;20491;-68
2023/09/11 02:58:39;;;;;;;5.65;4.40;;;;;;;;;;6184326;23;20068;-68
2023/09/11 03:01:06;;;;;;;5.10;4.38;;;;;;;;;;6183982;23;20068;-67
2023/09/11 03:03:32;;;;;;;4.45;4.00;;;;;;;;;;6184313;23;20483;-67
2023/09/11 03:06:00;;;;;;;6.97;4.20;;;;;;;;;;6184202;23;20072;-68
2023/09/11 03:08:26;;;;;;;5.00;4.50;;;;;;;;;;6184370;23;20092;-68
2023/09/11 03:10:53;;;;;;;5.13;4.45;;;;;;;;;;6184289;23;20076;-69
2023/09/11 03:13:19;;;;;;;4.85;4.35;;;;;;;;;;6184244;23;20084;-68
2023/09/11 03:15:47;;;;;;;5.60;4.72;;;;;;;;;;6183766;23;20365;-69
2023/09/11 03:18:13;;;;;;;5.35;4.85;;;;;;;;;;6184347;23;20081;-68
2023/09/11 03:20:39;;;;;;;7.50;4.30;;;;;;;;;;6184265;23;20080;-68
2023/09/11 03:23:06;;;;;;;6.82;4.40;;;;;;;;;;6184125;23;20084;-68
2023/09/11 03:25:35;;;;;;;7.07;4.55;;;;;;;;;;6184229;23;20072;-68
2023/09/11 03:28:02;;;;;;;5.32;4.70;;;;;;;;;;6183796;23;20080;-69
2023/09/11 03:30:28;;;;;;;4.82;4.32;;;;;;;;;;6184170;23;20076;-69
2023/09/11 03:32:54;;;;;;;5.28;4.53;;;;;;;;;;6184191;23;20400;-68
2023/09/11 03:35:21;;;;;;;6.57;4.85;;;;;;;;;;6184083;23;20072;-68
2023/09/11 03:37:47;;;;;;;7.40;5.03;;;;;;;;;;6184185;23;20072;-68
2023/09/11 03:40:14;;;;;;;4.85;4.07;;;;;;;;;;6184276;23;20116;-68
2023/09/11 03:42:40;;;;;;;7.80;4.68;;;;;;;;;;6183625;23;20071;-68
2023/09/11 03:45:07;;;;;;;5.43;4.47;;;;;;;;;;6184076;23;20369;-68
2023/09/11 03:47:34;;;;;;;4.97;4.18;;;;;;;;;;6185794;23;20080;-68
2023/09/11 03:50:02;;;;;;;8.00;4.78;;;;;;;;;;6185891;23;20072;-68
2023/09/11 03:52:28;;;;;;;6.85;5.07;;;;;;;;;;6185743;23;20100;-68
2023/09/11 03:54:54;;;;;;;7.82;4.88;;;;;;;;;;6185853;23;20064;-68
2023/09/11 03:57:21;;;;;;;7.97;4.50;;;;;;;;;;6185448;23;20081;-68
2023/09/11 03:59:47;;;;;;;8.20;4.88;;;;;;;;;;6159587;23;20061;-68
2023/09/11 04:02:13;;;;;;;5.57;4.80;;;;;;;;;;6185687;23;20084;-68
2023/09/11 04:04:40;;;;;;;7.78;4.75;;;;;;;;;;6185775;23;20106;-68
2023/09/11 04:07:06;;;;;;;4.82;4.05;;;;;;;;;;6185601;23;20068;-69
2023/09/11 04:09:32;;;;;;;6.10;4.50;;;;;;;;;;6185787;23;20127;-68
2023/09/11 04:12:02;;;;;;;6.00;4.57;;;;;;;;;;6185150;23;20076;-68
2023/09/11 04:14:28;;;;;;;6.43;4.75;;;;;;;;;;6185563;23;20399;-69
2023/09/11 04:16:55;;;;;;;5.00;4.28;;;;;;;;;;6185759;23;20072;-68
2023/09/11 04:19:21;;;;;;;7.20;4.88;;;;;;;;;;6185568;23;20108;-68
2023/09/11 04:21:47;;;;;;;4.72;4.22;;;;;;;;;;6185656;23;20089;-68
2023/09/11 04:24:14;;;;;;;5.78;5.03;;;;;;;;;;6185597;23;20131;-68
2023/09/11 04:26:41;;;;;;;7.22;5.13;;;;;;;;;;6185041;23;20080;-68
2023/09/11 04:29:10;;;;;;;6.63;4.63;;;;;;;;;;6185477;23;20088;-69
2023/09/11 04:31:37;;;;;;;6.50;4.90;;;;;;;;;;6185419;23;20068;-68
2023/09/11 04:34:03;;;;;;;6.82;4.97;;;;;;;;;;6159451;23;20076;-68
2023/09/11 04:36:29;;;;;;;5.82;4.80;;;;;;;;;;6185302;23;20080;-68
2023/09/11 04:38:56;;;;;;;4.93;4.45;;;;;;;;;;6185433;23;20084;-68
2023/09/11 04:41:22;;;;;;;6.28;4.97;;;;;;;;;;6185022;23;20068;-68
2023/09/11 04:43:48;;;;;;;6.55;5.38;;;;;;;;;;6185324;23;20084;-68
2023/09/11 04:46:16;;;;;;;6.97;5.30;;;;;;;;;;6185495;23;20084;-68
2023/09/11 04:48:42;;;;;;;6.28;4.97;;;;;;;;;;6185427;23;20441;-68
2023/09/11 04:51:08;;;;;;;5.75;4.80;;;;;;;;;;6185264;23;20080;-68
2023/09/11 04:53:35;;;;;;;7.53;5.18;;;;;;;;;;6185292;23;20407;-68
2023/09/11 04:56:01;;;;;;;7.25;5.05;;;;;;;;;;6184748;23;20080;-68
2023/09/11 04:58:28;;;;;;;8.00;4.90;;;;;;;;;;6184743;23;20507;-68
2023/09/11 05:00:54;;;;;;;9.05;5.10;;;;;;;;;;6185254;23;20426;-68
2023/09/11 05:03:20;;;;;;;6.72;5.22;;;;;;;;;;6185165;23;20080;-68
2023/09/11 05:05:48;;;;;;;7.22;5.20;;;;;;;;;;6185261;23;20076;-68
2023/09/11 05:08:15;;;;;;;5.65;5.05;;;;;;;;;;6185198;23;20083;-69
2023/09/11 05:10:42;;;;;;;6.95;5.72;;;;;;;;;;6184801;23;20310;-68
2023/09/11 05:13:08;;;;;;;7.03;5.40;;;;;;;;;;6185050;23;20021;-68
2023/09/11 05:15:34;;;;;;;5.70;4.95;;;;;;;;;;6185073;23;20135;-68
2023/09/11 05:18:01;;;;;;;9.63;5.30;;;;;;;;;;6185124;23;20079;-68
2023/09/11 05:20:27;;;;;;;7.18;5.30;;;;;;;;;;6185014;23;20076;-68
2023/09/11 05:22:54;;;;;;;7.95;5.43;;;;;;;;;;6184944;23;20519;-68
2023/09/11 05:25:20;;;;;;;8.00;5.22;;;;;;;;;;6184567;23;20080;-68
2023/09/11 05:27:47;;;;;;;5.60;5.05;;;;;;;;;;6184902;23;20104;-68
2023/09/11 05:30:13;;;;;;;6.18;5.30;;;;;;;;;;6184976;23;20084;-68
2023/09/11 05:32:40;;;;;;;8.13;5.55;;;;;;;;;;6184639;23;20511;-68
2023/09/11 05:35:06;;;;;;;6.30;5.55;;;;;;;;;;6184828;23;20068;-68
2023/09/11 05:37:33;;;;;;;9.60;5.60;;;;;;;;;;6184888;23;20092;-69
2023/09/11 05:40:00;;;;;;;6.75;5.88;;;;;;;;;;6184291;23;20480;-68
2023/09/11 05:42:27;;;;;;;7.20;5.65;;;;;;;;;;6184755;23;20431;-68
2023/09/11 05:44:53;;;;;;;12.85;8.13;;;;;;;;;;6184812;23;20072;-68
2023/09/11 05:47:19;;;;;;;13.13;8.77;;;;;;;;;;6184714;23;20076;-68
2023/09/11 05:49:46;;;;;;;13.43;8.13;;;;;;;;;;6184740;23;20357;-69
2023/09/11 05:52:12;;;;;;;17.20;9.15;;;;;;;;;;6184639;23;20405;-68
2023/09/11 05:54:41;;;;;;;12.52;8.30;;;;;;;;;;6184123;23;20068;-68
2023/09/11 05:57:07;;;;;;;14.35;8.15;;;;;;;;;;6184461;23;20092;-68
2023/09/11 05:59:33;;;;;;;16.45;7.95;;;;;;;;;;6184703;23;20076;-68
2023/09/11 06:01:59;;;;;;;12.60;6.60;;;;;;;;;;6184510;23;20080;-68
2023/09/11 06:04:27;;;;;;;11.75;6.00;;;;;;;;;;6184516;23;20515;-68
2023/09/11 06:06:53;;;;;;;7.00;5.38;;;;;;;;;;6184560;23;20084;-68
2023/09/11 06:09:19;;;;;;;8.63;5.18;;;;;;;;;;6183645;23;20072;-68
2023/09/11 06:11:47;;;;;;;6.78;5.40;;;;;;;;;;6184498;23;20076;-68
2023/09/11 06:14:14;;;;;;;18.60;5.82;;;;;;;;;;6184579;23;20495;-69
2023/09/11 06:16:40;;;;;;;14.20;6.03;;;;;;;;;;6182064;23;20515;-69
2023/09/11 06:19:07;;;;;;;9.43;5.55;;;;;;;;;;6181488;23;20071;-73
2023/09/11 06:21:34;;;;;;;12.32;6.38;;;;;;;;;;6183360;23;20088;-73
2023/09/11 06:24:00;;;;;;;13.85;6.18;;;;;;;;;;6183007;23;20061;-73
2023/09/11 06:26:26;;;;;;;10.88;6.22;;;;;;;;;;6183249;23;20068;-73
2023/09/11 06:28:52;;;;;;;9.32;5.95;;;;;;;;;;6182221;23;20072;-73
2023/09/11 06:31:20;;;;;;;10.13;6.32;;;;;;;;;;6183485;23;20072;-73
2023/09/11 06:33:46;;;;;;;13.07;6.40;;;;;;;;;;6182740;23;20108;-73
2023/09/11 06:36:13;;;;;;;14.25;6.40;;;;;;;;;;6155290;23;20076;-73
2023/09/11 06:38:39;;;;;;;9.68;6.18;;;;;;;;;;6182791;23;20071;-71
2023/09/11 06:41:05;;;;;;;13.70;6.13;;;;;;;;;;6181687;23;20108;-73
2023/09/11 06:43:32;;;;;;;9.48;5.93;;;;;;;;;;6183768;23;20088;-73
2023/09/11 06:45:58;;;;;;;10.23;6.00;;;;;;;;;;6183384;23;20064;-73
2023/09/11 06:48:24;;;;;;;10.73;6.38;;;;;;;;;;6183562;23;20080;-73
2023/09/11 06:50:54;;;;;;;9.93;6.03;;;;;;;;;;6178064;23;20119;-73
2023/09/11 06:53:20;;;;;;;10.77;5.70;;;;;;;;;;6152877;23;20013;-73
2023/09/11 06:55:47;;;;;;;14.30;6.03;;;;;;;;;;6181348;23;20444;-73
2023/09/11 06:58:14;;;;;;;14.25;5.78;;;;;;;;;;6179887;23;20375;-73
2023/09/11 07:00:40;;;;;;;11.98;5.43;;;;;;;;;;6181987;23;20092;-73
2023/09/11 07:03:06;;;;;;;8.93;5.47;;;;;;;;;;6182427;23;20094;-73
2023/09/11 07:05:34;;;;;;;11.07;5.10;;;;;;;;;;6182210;23;20077;-73
2023/09/11 07:08:00;;;;;;;8.90;5.22;;;;;;;;;;6182133;23;20084;-73
2023/09/11 07:10:27;;;;;;;8.85;5.85;;;;;;;;;;6181874;23;20076;-73
2023/09/11 07:12:53;;;;;;;12.13;5.25;;;;;;;;;;6182181;23;20065;-74
2023/09/11 07:15:20;;;;;;;8.00;5.57;;;;;;;;;;6178711;23;20124;-74
2023/09/11 07:17:48;;;;;;;7.63;5.55;;;;;;;;;;6181612;23;20470;-73
2023/09/11 07:20:15;;;;;;;10.95;5.47;;;;;;;;;;6181121;23;20088;-72
2023/09/11 07:22:41;;;;;;;12.73;5.55;;;;;;;;;;6183135;23;20076;-72
2023/09/11 07:25:12;;;;;;;12.35;5.45;;;;;;;;;;6183535;23;20381;-73
2023/09/11 07:27:39;;;;;;;10.10;5.43;;;;;;;;;;6184396;23;20076;-73
2023/09/11 07:30:08;;;;;;;12.68;5.72;;;;;;;;;;6184164;23;20076;-73
2023/09/11 07:32:34;;;;;;;7.35;5.20;;;;;;;;;;6184082;23;20097;-72
2023/09/11 07:35:01;;;;;;;10.90;5.15;;;;;;;;;;6183132;23;20395;-73
2023/09/11 07:37:27;;;;;;;6.65;5.38;;;;;;;;;;6182843;23;20396;-73
2023/09/11 07:39:54;;;;;;;6.85;5.40;;;;;;;;;;6183269;23;20072;-72
2023/09/11 07:42:20;;;;;;;10.23;5.45;;;;;;;;;;6157332;23;20068;-73
2023/09/11 07:44:46;;;;;;;8.25;5.38;;;;;;;;;;6184135;23;20077;-72
2023/09/11 07:47:13;;;;;;;7.75;5.15;;;;;;;;;;6184151;23;20369;-73
2023/09/11 07:49:39;;;;;;;9.63;5.32;;;;;;;;;;6155970;23;20403;-73
2023/09/11 07:52:05;;;;;;;14.57;5.15;;;;;;;;;;6182674;23;20314;-73
2023/09/11 07:54:32;;;;;;;13.50;5.30;;;;;;;;;;6184369;23;20069;-73
2023/09/11 07:57:01;;;;;;;8.23;5.13;;;;;;;;;;6158016;23;20072;-73
2023/09/11 07:59:27;;;;;;;14.23;5.28;;;;;;;;;;6184377;23;20389;-73
2023/09/11 08:01:53;;;;;;;6.00;4.90;;;;;;;;;;6184269;23;20071;-74
2023/09/11 08:04:20;;;;;;;5.63;4.80;;;;;;;;;;6183876;23;20100;-73
2023/09/11 08:06:46;;;;;;;5.47;4.88;;;;;;;;;;6183680;23;20054;-73
2023/09/11 08:09:12;;;;;;;7.40;4.60;;;;;;;;;;6156387;23;20369;-74
2023/09/11 08:11:39;;;;;;;9.20;4.53;;;;;;;;;;6183884;23;20079;-74
2023/09/11 08:14:08;;;;;;;9.07;5.07;;;;;;;;;;6183878;23;20013;-74
2023/09/11 08:16:35;;;;;;;8.27;4.60;;;;;;;;;;6184169;23;20071;-73
2023/09/11 08:19:01;;;;;;;7.25;4.10;;;;;;;;;;6156818;23;20101;-74
2023/09/11 08:21:27;;;;;;;4.32;3.50;;;;;;;;;;6183595;23;20084;-74
2023/09/11 08:23:54;;;;;;;4.68;4.28;;;;;;;;;;6184104;23;20088;-73
2023/09/11 08:26:20;;;;;;;4.15;3.75;;;;;;;;;;6183835;23;20088;-74
2023/09/11 08:28:46;;;;;;;6.45;4.15;;;;;;;;;;6183892;23;20515;-74
2023/09/11 08:31:13;;;;;;;6.40;4.05;;;;;;;;;;6182325;23;20488;-74
2023/09/11 08:33:39;;;;;;;6.40;4.25;;;;;;;;;;6182953;23;20023;-74
2023/09/11 08:36:05;;;;;;;7.20;4.10;;;;;;;;;;6183631;23;20080;-74
2023/09/11 08:38:32;;;;;;;6.05;4.10;;;;;;;;;;6184137;23;20125;-74
2023/09/11 08:40:58;;;;;;;10.63;4.20;;;;;;;;;;6157804;23;20072;-74
2023/09/11 08:43:25;;;;;;;9.07;4.10;;;;;;;;;;6183469;23;20089;-74
2023/09/11 08:45:54;;;;;;;10.50;4.55;;;;;;;;;;6183464;23;20073;-74
2023/09/11 08:48:21;;;;;;;5.60;4.45;;;;;;;;;;6182432;23;20446;-74
2023/09/11 08:50:54;;;;;;;7.53;4.20;;;;;;;;;;6157574;23;20081;-74
2023/09/11 08:53:22;;;;;;;16.83;3.95;;;;;;;;;;6183375;23;20083;-75
2023/09/11 08:55:50;;;;;;;9.25;3.63;;;;;;;;;;6183945;23;20088;-73
2023/09/11 08:58:20;;;;;;;5.95;3.60;;;;;;;;;;6182997;23;20080;-74
2023/09/11 09:00:46;;;;;;;;;;;;;;;;;;6157858;23;20076;-74
2023/09/11 09:03:13;;;;;;;24.88;3.90;;;;;;;;;;6182622;23;20390;-75
2023/09/11 09:05:40;;;;;;;10.18;3.65;;;;;;;;;;6183840;23;20076;-73
2023/09/11 09:08:07;;;;;;;6.18;3.83;;;;;;;;;;6183673;23;20072;-73
2023/09/11 09:10:33;;;;;;;5.15;4.13;;;;;;;;;;6183532;23;20080;-73
2023/09/11 09:13:00;;;;;;;9.55;4.10;;;;;;;;;;6183888;23;20132;-73
2023/09/11 09:15:28;;;;;;;4.28;3.88;;;;;;;;;;6183585;23;20068;-74
2023/09/11 09:17:55;;;;;;;6.93;4.20;;;;;;;;;;6183296;23;20092;-73
2023/09/11 09:20:22;;;;;;;7.18;4.45;;;;;;;;;;6183518;23;20084;-73
2023/09/11 09:22:58;;;;;;;4.45;4.05;;;;;;;;;;6183290;23;20438;-73
2023/09/11 09:25:26;;;;;;;4.60;4.10;;;;;;;;;;6183006;23;20080;-74
2023/09/11 09:27:52;;;;;;;4.82;4.32;;;;;;;;;;6156607;23;20558;-73
2023/09/11 09:30:38;;;;;;;4.20;3.83;;;;;;;;;;6181843;23;20392;-75
2023/09/11 09:33:05;;;;;;;4.45;4.05;;;;;;;;;;6183467;23;20099;-75
2023/09/11 09:35:34;;;;;;;4.68;3.50;;;;;;;;;;6182474;23;20448;-74
2023/09/11 09:38:01;;;;;;;7.07;3.75;;;;;;;;;;6183631;23;20401;-74
2023/09/11 09:40:32;;;;;;;5.22;3.60;;;;;;;;;;6183181;23;20084;-75
2023/09/11 09:42:59;;;;;;;4.80;3.17;;;;;;;;;;6155207;23;20017;-75
2023/09/11 09:45:30;;;;;;;6.38;3.30;;;;;;;;;;6180352;23;20084;-75
2023/09/11 09:48:06;;;;;;;3.72;3.42;;;;;;;;;;6182912;23;20073;-75
2023/09/11 09:50:51;;;;;;;3.90;3.20;;;;;;;;;;6182194;23;20067;-74
2023/09/11 09:53:27;;;;;;;3.78;3.25;;;;;;;;;;6155957;23;20104;-75
2023/09/11 09:55:57;;;;;;;6.40;3.20;;;;;;;;;;6182638;23;20072;-75
2023/09/11 09:58:27;;;;;;;5.38;2.72;;;;;;;;;;6156901;23;20088;-74
2023/09/11 10:01:00;;;;;;;3.30;3.10;;;;;;;;;;6182762;23;20088;-75
2023/09/11 10:03:27;;;;;;;4.70;2.60;;;;;;;;;;6182910;23;20088;-70
2023/09/11 10:05:53;;;;;;;4.47;2.38;;;;;;;;;;6182470;23;20076;-70
2023/09/11 10:08:19;;;;;;;2.53;1.83;;;;;;;;;;6183118;23;20079;-70
2023/09/11 10:10:46;;;;;;;3.00;2.20;;;;;;;;;;6157014;23;20068;-70
2023/09/11 10:13:13;;;;;;;10.98;2.00;;;;;;;;;;6183048;23;20091;-70
2023/09/11 10:15:40;;;;;;;2.47;1.23;;;;;;;;;;6182718;23;20064;-70
2023/09/11 10:18:07;;;;;;;6.60;1.38;;;;;;;;;;6183025;23;20075;-70
2023/09/11 10:20:34;;;;;;;8.63;1.30;;;;;;;;;;6183056;23;20081;-70
2023/09/11 10:23:01;;;;;;;4.38;1.40;;;;;;;;;;6183023;23;20043;-70
2023/09/11 10:25:29;;;;;;;1.33;1.08;;;;;;;;;;6183254;23;20028;-70
2023/09/11 10:28:07;;;;;;;1.17;1.08;;;;;;;;;;6156756;23;20244;-70
2023/09/11 10:30:40;;;;;;;5.30;1.38;;;;;;;;;;6181368;23;20080;-71
2023/09/11 10:33:13;;;;;;;1.20;1.10;;;;;;;;;;6182815;23;20479;-70
2023/09/11 10:35:41;;;;;;;5.03;1.58;;;;;;;;;;6183082;23;20389;-70
2023/09/11 10:38:08;;;;;;;6.35;1.70;;;;;;;;;;6182918;23;20390;-70
2023/09/11 10:40:35;;;;;;;1.35;1.25;;;;;;;;;;6182957;23;20092;-69
2023/09/11 10:43:02;;;;;;;1.83;1.40;;;;;;;;;;6182366;23;20092;-70
2023/09/11 10:45:29;;;;;;;10.00;1.67;;;;;;;;;;6183194;23;20115;-70
2023/09/11 10:47:55;;;;;;;1.63;1.52;;;;;;;;;;6156915;23;20088;-70
2023/09/11 10:50:25;;;;;;;9.82;1.60;;;;;;;;;;6183376;23;20080;-70
2023/09/11 10:52:55;;;;;;;6.40;1.52;;;;;;;;;;6182964;23;20076;-70
2023/09/11 10:55:21;;;;;;;;;;;;;;;;;;6184162;23;20072;-70
2023/09/11 10:57:47;;;;;;;2.28;1.55;;;;;;;;;;6185172;23;19987;-70
2023/09/11 11:00:14;;;;;;;5.97;1.52;;;;;;;;;;6185570;23;20391;-70
2023/09/11 11:02:40;;;;;;;3.05;1.58;;;;;;;;;;6185271;23;20088;-70
2023/09/11 11:05:14;;;;;;;4.03;1.60;;;;;;;;;;6185151;23;20076;-70
2023/09/11 11:07:41;;;;;;;2.17;1.58;;;;;;;;;;6185740;23;20080;-69
2023/09/11 11:10:14;;;;;;;3.40;1.70;;;;;;;;;;6185571;23;20399;-69
2023/09/11 11:12:42;;;;;;;3.17;1.88;;;;;;;;;;6158407;23;20136;-69
2023/09/11 11:15:19;;;;;;;2.28;1.63;;;;;;;;;;6184889;23;20151;-70
2023/09/11 11:17:45;;;;;;;5.13;1.67;;;;;;;;;;6185197;23;20397;-69
2023/09/11 11:20:11;;;;;;;2.17;1.70;;;;;;;;;;6185507;23;20079;-69
2023/09/11 11:22:41;;;;;;;1.60;1.50;;;;;;;;;;6185067;23;20076;-68
2023/09/11 11:25:10;;;;;;;4.85;1.63;;;;;;;;;;6184939;23;20110;-69
2023/09/11 11:27:40;;;;;;;2.08;1.40;;;;;;;;;;6184902;23;20512;-69
2023/09/11 11:30:07;;;;;;;1.55;1.40;;;;;;;;;;6185254;23;20120;-69
2023/09/11 11:32:37;;;;;;;2.60;1.52;;;;;;;;;;6185412;23;20076;-69
2023/09/11 11:35:04;;;;;;;8.02;1.60;;;;;;;;;;6184942;23;20419;-69
2023/09/11 11:37:32;;;;;;;2.17;1.50;;;;;;;;;;6185227;23;20072;-69
2023/09/11 11:40:00;;;;;;;4.00;1.40;;;;;;;;;;6183416;23;20084;-69
2023/09/11 11:42:27;;;;;;;2.92;1.50;;;;;;;;;;6181638;23;20009;-69
2023/09/11 11:44:54;;;;;;;1.58;1.48;;;;;;;;;;6183580;23;20068;-69
2023/09/11 11:47:20;;;;;;;1.65;1.27;;;;;;;;;;6184698;23;20064;-69
2023/09/11 11:49:49;;;;;;;2.40;1.38;;;;;;;;;;6180397;23;20430;-70
2023/09/11 11:52:15;;;;;;;1.60;1.48;;;;;;;;;;6184245;23;20085;-68
2023/09/11 11:54:41;;;;;;;7.20;1.67;;;;;;;;;;6156257;23;20096;-68
2023/09/11 11:57:08;;;;;;;6.65;2.10;;;;;;;;;;6156667;23;20503;-68
2023/09/11 11:59:37;;;;;;;3.20;1.58;;;;;;;;;;6183032;23;20084;-69
2023/09/11 12:02:04;;;;;;;3.38;1.48;;;;;;;;;;6180495;23;20722;-68
2023/09/11 12:04:30;;;;;;;4.90;1.70;;;;;;;;;;6183272;23;20083;-69
2023/09/11 12:06:57;;;;;;;7.60;1.67;;;;;;;;;;6184255;23;20083;-68
2023/09/11 12:09:24;;;;;;;2.65;1.80;;;;;;;;;;6183466;23;20076;-69
2023/09/11 12:11:50;;;;;;;2.45;1.60;;;;;;;;;;6182833;23;20072;-70
2023/09/11 12:14:18;;;;;;;10.05;2.08;;;;;;;;;;6183629;23;20089;-69
2023/09/11 12:16:45;;;;;;;7.45;1.90;;;;;;;;;;6183885;23;20072;-68
2023/09/11 12:19:12;;;;;;;1.60;1.50;;;;;;;;;;6183560;23;20139;-69
2023/09/11 12:21:38;;;;;;;4.47;2.00;;;;;;;;;;6182865;23;20076;-68
2023/09/11 12:24:08;;;;;;;2.13;1.70;;;;;;;;;;6182606;23;20337;-69
2023/09/11 12:26:35;;;;;;;;;;;;;;;;;;6183706;23;20076;-70
2023/09/11 12:29:03;;;;;;;1.83;1.63;;;;;;;;;;6183506;23;19982;-70
2023/09/11 12:31:30;;;;;;;6.38;1.77;;;;;;;;;;6183308;23;20072;-70
2023/09/11 12:34:03;;;;;;;1.70;1.60;;;;;;;;;;6183390;23;20092;-70
2023/09/11 12:36:30;;;;;;;4.60;1.80;;;;;;;;;;6182804;23;20076;-70
2023/09/11 12:38:58;;;;;;;1.67;1.58;;;;;;;;;;6182159;23;20088;-70
2023/09/11 12:41:26;;;;;;;1.83;1.65;;;;;;;;;;6182387;23;20104;-70
2023/09/11 12:43:53;;;;;;;3.63;1.70;;;;;;;;;;6183693;23;20174;-70
2023/09/11 12:46:19;;;;;;;8.68;1.83;;;;;;;;;;6184110;23;20127;-70
2023/09/11 12:48:46;;;;;;;2.05;1.65;;;;;;;;;;6182504;23;20079;-71
2023/09/11 12:51:13;;;;;;;1.45;1.35;;;;;;;;;;6182815;23;20076;-70
2023/09/11 12:53:40;;;;;;;1.85;1.67;;;;;;;;;;6180061;23;20080;-71
2023/09/11 12:56:09;;;;;;;1.83;1.73;;;;;;;;;;6183157;23;20093;-70
2023/09/11 12:58:37;;;;;;;2.53;1.70;;;;;;;;;;6182182;23;20088;-71
2023/09/11 13:01:04;;;;;;;2.92;2.00;;;;;;;;;;6183039;23;20551;-68
2023/09/11 13:03:31;;;;;;;10.73;1.95;;;;;;;;;;6180425;23;20013;-71
2023/09/11 13:05:58;;;;;;;2.03;1.80;;;;;;;;;;6180913;23;20076;-70
2023/09/11 13:08:28;;;;;;;3.10;2.10;;;;;;;;;;6182141;23;20067;-71
2023/09/11 13:10:55;;;;;;;2.00;1.90;;;;;;;;;;6156204;23;20079;-71
2023/09/11 13:13:21;;;;;;;2.45;1.90;;;;;;;;;;6183152;23;20113;-71
2023/09/11 13:15:47;;;;;;;3.22;1.80;;;;;;;;;;6182373;23;20379;-71
2023/09/11 13:18:14;;;;;;;2.00;1.80;;;;;;;;;;6155394;23;20394;-71
2023/09/11 13:20:40;;;;;;;4.15;1.80;;;;;;;;;;6182860;23;20407;-71
2023/09/11 13:23:06;;;;;;;3.92;1.92;;;;;;;;;;6182843;23;20027;-71
2023/09/11 13:25:33;;;;;;;3.95;1.52;;;;;;;;;;6183103;23;20073;-71
2023/09/11 13:27:59;;;;;;;1.95;1.77;;;;;;;;;;6182931;23;20092;-70
2023/09/11 13:30:25;;;;;;;2.90;1.80;;;;;;;;;;6182799;23;20084;-71
2023/09/11 13:32:52;;;;;;;3.05;1.67;;;;;;;;;;6156945;23;20099;-71
2023/09/11 13:35:18;;;;;;;3.17;2.10;;;;;;;;;;6183386;23;20076;-71
2023/09/11 13:37:44;;;;;;;2.95;1.90;;;;;;;;;;6181454;23;20840;-70
2023/09/11 13:40:11;;;;;;;4.47;2.00;;;;;;;;;;6183144;23;20100;-70
2023/09/11 13:42:38;;;;;;;5.28;2.00;;;;;;;;;;6183251;23;20519;-71
2023/09/11 13:45:05;;;;;;;1.80;1.70;;;;;;;;;;6156133;23;20079;-71
2023/09/11 13:47:31;;;;;;;3.30;1.70;;;;;;;;;;6183403;23;20072;-70
2023/09/11 13:49:57;;;;;;;2.00;1.70;;;;;;;;;;6155916;23;20076;-71
2023/09/11 13:52:23;;;;;;;2.35;1.80;;;;;;;;;;6182045;23;20076;-71
2023/09/11 13:54:50;;;;;;;3.20;1.80;;;;;;;;;;6155650;23;20519;-71
2023/09/11 13:57:16;;;;;;;8.40;1.95;;;;;;;;;;6180912;23;20087;-70
2023/09/11 13:59:45;;;;;;;7.80;1.77;;;;;;;;;;6182408;23;20123;-71
2023/09/11 14:02:11;;;;;;;2.30;1.85;;;;;;;;;;6182936;23;20119;-69
2023/09/11 14:04:38;;;;;;;4.80;2.10;;;;;;;;;;6181513;23;20080;-70
2023/09/11 14:07:04;;;;;;;5.38;2.20;;;;;;;;;;6155956;23;20001;-71
2023/09/11 14:09:30;;;;;;;5.20;1.70;;;;;;;;;;6182434;23;20076;-71
2023/09/11 14:11:58;;;;;;;5.78;2.13;;;;;;;;;;6181428;23;19997;-71
2023/09/11 14:14:24;;;;;;;5.38;2.13;;;;;;;;;;6180768;23;20076;-71
2023/09/11 14:16:50;;;;;;;2.28;1.88;;;;;;;;;;6182841;23;20088;-70
2023/09/11 14:19:17;;;;;;;4.82;2.17;;;;;;;;;;6182923;23;20386;-70
2023/09/11 14:21:43;;;;;;;2.65;2.10;;;;;;;;;;6182036;23;20080;-70
2023/09/11 14:24:09;;;;;;;4.00;2.13;;;;;;;;;;6182308;23;20021;-70
2023/09/11 14:26:36;;;;;;;2.65;1.90;;;;;;;;;;6155743;23;20077;-70
2023/09/11 14:29:03;;;;;;;5.40;1.80;;;;;;;;;;6181836;23;20111;-70
2023/09/11 14:31:29;;;;;;;3.65;2.03;;;;;;;;;;6181204;23;20079;-70
2023/09/11 14:33:56;;;;;;;11.18;2.15;;;;;;;;;;6181352;23;20512;-70
2023/09/11 14:36:22;;;;;;;3.38;1.60;;;;;;;;;;6182151;23;20072;-70
2023/09/11 14:38:48;;;;;;;2.95;1.88;;;;;;;;;;6156213;23;20085;-71
2023/09/11 14:41:14;;;;;;;2.80;1.92;;;;;;;;;;6183026;23;20109;-71
2023/09/11 14:43:41;;;;;;;3.03;2.45;;;;;;;;;;6182866;23;20092;-70